KE5HYT Weather Reports


time (UTC)temp
F
wind
direction
speed
knots
gust
knots
rain 1hr
in
rain 24hr
in
rain mn
in
humidity
%
barometer
mb
20260510142704 68 171 1.7 3.5 0.01 0.01 0.01 95 1016.6
20260510141824 67 167 1.7 4.3 0.01 0.01 0.01 96 1016.6
20260510140903 66 165 1.7 3.5 0.01 0.01 0.01 97 1016.4
20260510140003 66 184 2.6 5.2 0.00 0.00 0.00 97 1016.6
20260510135403 65 178 2.6 5.2 0.00 0.00 0.00 97 1016.4
20260510134524 64 168 3.5 5.2 0.00 0.00 0.00 97 1016.4
20260510133625 64 167 1.7 5.2 0.00 0.00 0.00 97 1016.4
20260510132704 64 166 0.9 4.3 0.00 0.00 0.00 97 1016.5
20260510131825 63 0 0.0 0.0 0.00 0.00 0.00 97 1016.4
20260510130903 62 0 0.0 0.0 0.00 0.00 0.00 97 1016.4
20260510130024 62 0 0.0 0.0 0.00 0.00 0.00 97 1016.3
20260510125403 61 0 0.0 0.0 0.00 0.00 0.00 97 1016.4
20260510124503 61 0 0.0 0.0 0.00 0.00 0.00 97 1016.3
20260510123604 60 0 0.0 0.0 0.00 0.00 0.00 97 1016.3
20260510122724 60 0 0.0 0.0 0.00 0.00 0.00 97 1016.3
20260510121803 60 0 0.0 0.0 0.00 0.00 0.00 97 1016.3
20260510120903 59 0 0.0 0.0 0.00 0.00 0.00 96 1016.2
20260510120004 59 0 0.0 0.0 0.00 0.00 0.00 96 1016.2
20260510115403 58 0 0.0 0.0 0.00 0.00 0.00 96 1016.2
20260510114503 58 0 0.0 0.0 0.00 0.00 0.00 96 1015.9
20260510113603 58 0 0.0 0.0 0.00 0.00 0.00 96 1015.5
20260510112703 58 0 0.0 0.0 0.00 0.00 0.00 96 1015.3
20260510111803 58 0 0.0 0.0 0.00 0.00 0.00 95 1015.2
20260510110924 58 0 0.0 0.0 0.00 0.00 0.00 95 1014.9
20260510110004 58 0 0.0 0.0 0.00 0.00 0.00 96 1014.7
20260510105403 58 0 0.0 0.0 0.00 0.00 0.00 95 1014.6
20260510104503 58 0 0.0 0.0 0.00 0.00 0.00 95 1014.6
20260510103603 58 0 0.0 0.0 0.00 0.00 0.00 95 1014.5
20260510102703 58 0 0.0 0.0 0.00 0.00 0.00 95 1014.4
20260510101803 59 0 0.0 0.0 0.00 0.00 0.00 95 1014.3
20260510100903 59 0 0.0 0.0 0.00 0.00 0.00 95 1014.4
20260510100004 59 0 0.0 0.0 0.00 0.00 0.00 95 1014.1
20260510095403 59 0 0.0 0.0 0.00 0.00 0.00 95 1014.1
20260510094524 59 0 0.0 0.0 0.00 0.00 0.00 95 1014.0
20260510093603 59 0 0.0 0.0 0.00 0.00 0.00 95 1013.9
20260510092703 60 0 0.0 0.0 0.00 0.00 0.00 95 1013.5
20260510091803 60 0 0.0 0.0 0.00 0.00 0.00 95 1013.6
20260510090903 59 0 0.0 0.0 0.00 0.00 0.00 95 1013.7
20260510090003 60 0 0.0 0.0 0.00 0.00 0.00 95 1013.6
20260510085403 60 0 0.0 0.0 0.00 0.00 0.00 95 1013.5
20260510084503 60 0 0.0 0.0 0.00 0.00 0.00 95 1013.7
20260510083624 60 0 0.0 0.0 0.00 0.00 0.00 95 1013.6
20260510082703 60 0 0.0 0.0 0.00 0.00 0.00 95 1013.6
20260510081803 60 0 0.0 0.0 0.00 0.00 0.00 95 1013.6
20260510080904 60 0 0.0 0.0 0.00 0.00 0.00 95 1013.7
20260510080003 60 0 0.0 0.0 0.00 0.00 0.00 95 1013.6
20260510075403 60 0 0.0 0.0 0.00 0.00 0.00 95 1013.6
20260510074505 61 0 0.0 0.0 0.00 0.00 0.00 95 1013.7
20260510073605 61 0 0.0 0.0 0.00 0.00 0.00 95 1013.6
20260510072705 61 0 0.0 0.0 0.00 0.00 0.00 94 1013.7
20260510071805 61 0 0.0 0.0 0.00 0.00 0.00 94 1013.5
20260510070904 61 0 0.0 0.0 0.00 0.00 0.00 94 1013.4
20260510070005 61 0 0.0 0.0 0.00 0.00 0.00 94 1013.3
20260510065405 61 0 0.0 0.0 0.00 0.00 0.00 94 1013.2
20260510064504 61 0 0.0 0.0 0.00 0.00 0.00 94 1013.4
20260510063626 62 0 0.0 0.0 0.00 0.00 0.00 94 1013.4
20260510062705 62 0 0.0 0.0 0.00 0.00 0.00 93 1013.5
20260510061804 62 0 0.0 0.0 0.00 0.00 0.00 94 1013.4
20260510060905 62 0 0.0 0.0 0.00 0.00 0.00 93 1013.5
20260510060026 63 0 0.0 0.0 0.00 0.00 0.00 93 1013.6
20260510055405 63 0 0.0 0.0 0.00 0.00 0.00 93 1013.6
20260510054505 63 0 0.0 0.0 0.00 0.00 0.00 92 1013.6
20260510053605 63 0 0.0 0.0 0.00 0.00 0.00 92 1013.5
20260510052705 64 0 0.0 0.0 0.00 0.00 0.00 92 1013.4
20260510051825 64 0 0.0 0.0 0.00 0.00 0.00 92 1013.4
20260510050926 64 0 0.0 0.0 0.00 0.00 0.00 91 1013.3
20260510050006 65 0 0.0 0.0 0.00 0.00 0.00 91 1013.3
20260510045405 65 0 0.0 0.0 0.00 0.00 0.00 91 1013.2
20260510044505 65 0 0.0 0.0 0.00 0.00 0.00 91 1013.2
20260510043605 65 0 0.0 0.0 0.00 0.00 0.00 90 1013.3
20260510042704 65 0 0.0 0.0 0.00 0.00 0.00 90 1013.1
20260510041826 65 0 0.0 0.0 0.00 0.00 0.00 90 1013.3
20260510040904 66 0 0.0 0.0 0.00 0.00 0.00 90 1013.4
20260510040005 66 0 0.0 0.0 0.00 0.00 0.00 90 1013.6
20260510035405 66 0 0.0 0.0 0.00 0.00 0.00 90 1013.4
20260510034505 65 0 0.0 0.0 0.00 0.00 0.00 90 1013.6
20260510033605 65 0 0.0 0.0 0.00 0.00 0.00 91 1013.7
20260510032704 65 0 0.0 0.0 0.00 0.00 0.00 91 1013.6
20260510031825 64 0 0.0 0.0 0.00 0.00 0.00 92 1013.6
20260510030905 64 0 0.0 0.0 0.00 0.00 0.00 91 1013.6
20260510030025 64 0 0.0 0.0 0.00 0.00 0.00 90 1013.5
20260510025405 64 0 0.0 0.0 0.00 0.00 0.00 90 1013.5
20260510024504 65 0 0.0 0.0 0.00 0.00 0.00 89 1013.4
20260510023604 65 0 0.0 0.0 0.00 0.00 0.00 88 1013.1
20260510022726 65 0 0.0 0.0 0.00 0.00 0.00 88 1013.1
20260510021804 66 0 0.0 0.0 0.00 0.00 0.00 87 1012.9
20260510020904 66 0 0.0 0.0 0.00 0.00 0.00 86 1012.7
20260510020005 66 0 0.0 0.0 0.00 0.00 0.00 86 1012.5
20260510015404 66 0 0.0 0.0 0.00 0.00 0.00 85 1012.4
20260510014525 67 0 0.0 0.0 0.00 0.00 0.00 84 1012.2
20260510013604 67 0 0.0 0.0 0.00 0.00 0.00 83 1012.0
20260510012726 68 0 0.0 0.0 0.00 0.00 0.00 82 1011.8
20260510011804 69 0 0.0 0.0 0.00 0.00 0.00 80 1011.5
20260510010904 70 0 0.0 0.0 0.00 0.00 0.00 80 1011.4
20260510010025 70 0 0.0 0.0 0.00 0.00 0.00 77 1011.3
20260510005404 71 0 0.0 0.0 0.00 0.00 0.00 76 1011.2
20260510004504 71 0 0.0 0.0 0.00 0.00 0.00 75 1011.2
20260510003604 72 0 0.0 0.0 0.00 0.00 0.00 74 1010.9
20260510002704 73 0 0.0 0.0 0.00 0.00 0.00 73 1010.9
20260510001804 73 205 0.0 0.9 0.00 0.00 0.00 71 1010.7
20260510000904 74 206 0.0 0.9 0.00 0.00 0.00 69 1010.6
20260510000004 75 206 0.0 0.9 0.00 0.00 0.00 67 1010.6
20260509235404 75 206 0.0 0.9 0.00 0.00 0.00 66 1010.5
20260509234504 76 206 0.9 2.6 0.00 0.00 0.00 63 1010.5
20260509233604 78 193 1.7 3.5 0.00 0.00 0.00 62 1010.6
20260509232704 78 168 3.5 5.2 0.00 0.00 0.00 60 1010.6
20260509231804 78 187 2.6 7.0 0.00 0.00 0.00 62 1010.7
20260509230904 79 169 3.5 7.0 0.00 0.00 0.00 61 1010.5
20260509230004 79 175 4.3 7.8 0.00 0.00 0.00 62 1010.5
20260509225404 79 173 3.5 7.8 0.00 0.00 0.00 61 1010.4
20260509224504 80 185 3.5 8.7 0.00 0.00 0.00 61 1010.3
20260509223604 80 180 4.3 8.7 0.00 0.00 0.00 61 1010.3
20260509222704 81 175 4.3 8.7 0.00 0.00 0.00 60 1010.2
20260509221804 82 180 1.7 6.1 0.00 0.00 0.00 50 1010.2
20260509220904 83 350 0.9 0.9 0.00 0.00 0.00 49 1010.1
20260509220025 82 339 0.9 2.6 0.00 0.00 0.00 43 1010.1
20260509215404 82 277 0.9 3.5 0.00 0.00 0.00 48 1010.1
20260509214504 82 223 0.9 3.5 0.00 0.00 0.00 44 1010.1
20260509213604 83 218 0.9 3.5 0.00 0.00 0.00 45 1010.1
20260509212704 82 261 0.9 3.5 0.00 0.00 0.00 44 1010.1
20260509211804 82 249 1.7 4.3 0.00 0.00 0.00 50 1010.2
20260509210925 81 357 1.7 5.2 0.00 0.00 0.00 49 1010.2
20260509210004 81 311 2.6 5.2 0.00 0.00 0.00 43 1010.3
20260509205404 82 295 1.7 5.2 0.00 0.00 0.00 43 1010.4
20260509204504 82 257 1.7 3.5 0.00 0.00 0.00 44 1010.3
20260509203625 81 271 1.7 3.5 0.00 0.00 0.00 45 1010.5
20260509202704 82 231 1.7 7.0 0.00 0.00 0.00 46 1010.7
20260509201804 82 218 2.6 6.1 0.00 0.00 0.00 46 1010.3
20260509200904 82 287 1.7 6.1 0.00 0.00 0.00 52 1010.6
20260509200004 80 282 1.7 6.1 0.00 0.00 0.00 48 1010.7
20260509195404 82 276 1.7 6.1 0.00 0.00 0.00 48 1010.6
20260509194504 82 192 2.6 7.8 0.00 0.00 0.00 51 1010.7
20260509193604 81 12 1.7 7.0 0.00 0.00 0.00 52 1010.7
20260509192704 80 282 1.7 5.2 0.00 0.00 0.00 56 1010.8
20260509191804 81 202 2.6 7.0 0.00 0.00 0.00 54 1010.7
20260509190904 81 194 3.5 7.0 0.00 0.00 0.00 52 1010.7
20260509190025 81 195 2.6 7.8 0.00 0.00 0.00 52 1011.0
20260509185404 80 236 2.6 7.0 0.00 0.00 0.00 52 1011.0
20260509184504 81 199 1.7 7.0 0.00 0.00 0.00 53 1011.2
20260509183604 79 187 2.6 7.8 0.00 0.00 0.00 58 1011.1
20260509182704 78 170 1.7 7.0 0.00 0.00 0.00 59 1011.3
20260509181804 79 180 2.6 5.2 0.00 0.00 0.00 55 1011.3
20260509180925 79 183 1.7 5.2 0.00 0.00 0.00 62 1011.5
20260509180004 77 201 2.6 7.0 0.00 0.00 0.00 62 1011.5
20260509175404 77 205 2.6 6.1 0.00 0.00 0.00 63 1011.5
20260509174526 78 239 2.6 7.8 0.00 0.00 0.00 57 1011.5
20260509173604 78 194 4.3 8.7 0.00 0.00 0.00 55 1011.4
20260509172704 76 266 1.7 7.0 0.00 0.00 0.00 63 1011.5
20260509171825 77 214 1.7 3.5 0.00 0.00 0.00 60 1011.5
20260509170903 76 199 1.7 4.3 0.00 0.00 0.00 62 1011.6
20260509170004 75 260 1.7 5.2 0.00 0.00 0.00 62 1011.6
20260509165403 75 269 1.7 5.2 0.00 0.00 0.00 61 1011.7
20260509164504 76 249 2.6 7.8 0.00 0.00 0.00 64 1011.6
20260509163604 76 176 1.7 7.0 0.00 0.00 0.00 61 1011.6
20260509162725 76 202 2.6 7.0 0.00 0.00 0.00 61 1011.8
20260509161804 76 189 2.6 6.1 0.00 0.00 0.00 65 1011.7
20260509160903 75 223 1.7 6.1 0.00 0.00 0.00 66 1011.8
20260509160004 75 200 1.7 6.1 0.00 0.00 0.00 66 1011.8
20260509155424 75 312 1.7 6.1 0.00 0.00 0.00 65 1011.6
20260509154504 74 244 1.7 5.2 0.00 0.00 0.00 67 1011.7
20260509153604 73 314 1.7 4.3 0.00 0.00 0.00 68 1011.5
20260509152703 73 319 2.6 6.1 0.00 0.00 0.00 68 1011.5
20260509151803 72 298 2.6 7.0 0.00 0.00 0.00 69 1011.2
20260509150904 72 287 1.7 7.8 0.00 0.00 0.00 71 1011.2
20260509150004 71 289 1.7 4.3 0.00 0.00 0.00 75 1011.1
20260509145425 70 308 1.7 4.3 0.00 0.00 0.00 74 1011.1
20260509144504 70 236 2.6 6.1 0.00 0.00 0.00 78 1011.1
20260509143604 68 286 1.7 6.1 0.00 0.00 0.00 82 1011.2